MSC Bremen — A8LK7 — position and weather

sailwx.info

Track history (hours):
 
Tides and Currents Weather Stations Pressure Air Temp Water Temp Dewpoint Dewpoint Depression Visibility Wind Speed Wind Dir Waves Ship Positions

MSC Bremen

Last reported at 2016-Aug-23 06:00 UTC. Time now 2016-Aug-24 06:47 UTC.
Position N 49°54' W 012°00'.

Length 294 m; ; draft 13.7 m.

Type: Ship (hazmat cat A). MMSI: 636091270.

Wind from 010 at 12 knots

Waves 1.5 meters (5 feet), 10 second period

Barometer 1022.0 mb
Air temperature 17.0 ° C
Visibility: greater than 5.4 NM
Dewpoint 13.7 ° C

Date/timePositionNaut miles runAvg speedWind from/ knotsBaromVisibWave heightAir tempDewpointWater temp
2016-Aug-23 06:00N 49°54' W 012°00'18819.9 010 / 121022.0 5.4 1.517.013.7
2016-Aug-22 20:33N 49°43' W 007°09'2918.5
2016-Aug-22 19:00N 49°42' W 006°24'1121.9 140 / 141025.010.8 1.020.015.3
2016-Aug-22 18:30N 49°44' W 006°08'1819.3
2016-Aug-22 17:33N 49°46' W 005°40'2019.9
2016-Aug-22 16:33N 49°48' W 005°09'2020.0
2016-Aug-22 15:33N 49°50' W 004°38'2020.4
2016-Aug-22 14:33N 49°52' W 004°07'2120.6
2016-Aug-22 13:34N 49°55' W 003°35'2120.9
2016-Aug-22 12:33N 49°58' W 003°03'2019.4
2016-Aug-22 11:33N 50°02' W 002°33'1716.9
2016-Aug-22 10:33N 50°02' W 002°07'3716.9
2016-Aug-22 08:21N 49°48' W 001°13'1518.6
2016-Aug-22 07:33N 49°43' W 000°52'2120.8
2016-Aug-22 06:33N 49°36' W 000°22'1717.1
2016-Aug-22 05:33N 49°30' E 000°03'4 4.0
2016-Aug-22 04:32N 49°28' E 000°08'0 0.0
2016-Aug-22 03:32N 49°28' E 000°08'0 0.0
2016-Aug-22 02:32N 49°28' E 000°08'0 0.0
2016-Aug-22 01:32N 49°28' E 000°08'0 0.0
2016-Aug-22 00:32N 49°28' E 000°08'0 0.0
2016-Aug-21 23:32N 49°28' E 000°08'0 0.0
2016-Aug-21 22:32N 49°28' E 000°08'0 0.0
2016-Aug-21 21:32N 49°28' E 000°08'0 0.0
2016-Aug-21 20:32N 49°28' E 000°08'0 0.0
2016-Aug-21 19:32N 49°28' E 000°08'2 1.6
2016-Aug-21 18:34N 49°28' E 000°06'1111.2
2016-Aug-21 17:33N 49°33' W 000°10'6 6.2
2016-Aug-21 16:33N 49°38' W 000°13'1 0.6
2016-Aug-21 15:33N 49°39' W 000°12'2 2.2
2016-Aug-21 14:33N 49°41' W 000°12'1111.4
2016-Aug-21 13:33N 49°52' W 000°10'1211.6
2016-Aug-21 12:33N 50°04' W 000°09'1211.7
2016-Aug-21 11:33N 50°15' W 000°15'9 8.8
2016-Aug-21 10:33N 50°23' W 000°11'9 8.5
2016-Aug-21 09:30N 50°29' E 000°00'9 9.9
2016-Aug-21 08:33N 50°31' E 000°14'1111.4
2016-Aug-21 07:33N 50°35' E 000°31'3611.8
2016-Aug-21 04:29N 50°55' E 001°19'9 9.6
2016-Aug-21 03:33N 51°02' E 001°28'8 7.6
2016-Aug-21 02:33N 51°08' E 001°36'8 7.7
2016-Aug-21 01:34N 51°13' E 001°45'9 8.7
2016-Aug-21 00:33N 51°20' E 001°53'9 8.6
2016-Aug-20 23:33N 51°24' E 002°05'1010.1
2016-Aug-20 22:33N 51°21' E 002°20'1211.6
2016-Aug-20 21:33N 51°22' E 002°38'8 7.8
2016-Aug-20 20:33N 51°26' E 002°50'1616.1
2016-Aug-20 19:33N 51°25' E 003°16'1414.1
2016-Aug-20 18:34N 51°26' E 003°38'1312.7
2016-Aug-20 17:33N 51°26' E 003°58'1211.6
2016-Aug-20 16:33N 51°21' E 004°15'4 3.5
2016-Aug-20 15:31N 51°17' E 004°15'0 0.0
2016-Aug-20 14:31N 51°17' E 004°15'0 0.0
2016-Aug-20 13:31N 51°17' E 004°15'0 0.0
2016-Aug-20 12:31N 51°17' E 004°15'0 0.0
2016-Aug-20 11:31N 51°17' E 004°15'0 0.0
2016-Aug-20 10:31N 51°17' E 004°15'0 0.0
2016-Aug-20 09:31N 51°17' E 004°15'0 0.0
2016-Aug-20 08:31N 51°17' E 004°15'0 0.0
2016-Aug-20 07:31N 51°17' E 004°15'0 0.0
2016-Aug-20 06:31N 51°17' E 004°15'0 0.0
2016-Aug-20 05:31N 51°17' E 004°15'0 0.0
2016-Aug-20 04:31N 51°17' E 004°15'0 0.0
2016-Aug-20 03:31N 51°17' E 004°15'0 0.0
2016-Aug-20 02:31N 51°17' E 004°15'0 0.0
2016-Aug-20 01:31N 51°17' E 004°15'0 0.0
2016-Aug-20 00:31N 51°17' E 004°15'0 0.0
2016-Aug-19 23:31N 51°17' E 004°15'0 0.0
2016-Aug-19 22:31N 51°17' E 004°15'0 0.0
2016-Aug-19 21:31N 51°17' E 004°15'0 0.0
2016-Aug-19 20:31N 51°17' E 004°15'0 0.0
2016-Aug-19 19:31N 51°17' E 004°15'0 0.0
2016-Aug-19 18:31N 51°17' E 004°15'0 0.0
2016-Aug-19 17:31N 51°17' E 004°15'0 0.0
2016-Aug-19 16:28N 51°17' E 004°15'0 0.0
2016-Aug-19 15:31N 51°17' E 004°15'0 0.0
2016-Aug-19 14:31N 51°17' E 004°15'0 0.0
2016-Aug-19 13:31N 51°17' E 004°15'0 0.0
2016-Aug-19 12:31N 51°17' E 004°15'0 0.0
2016-Aug-19 11:31N 51°17' E 004°15'1 0.8
2016-Aug-19 10:33N 51°18' E 004°16'7 6.6
2016-Aug-19 09:33N 51°24' E 004°11'9 8.7
2016-Aug-19 08:33N 51°23' E 003°57'1110.7
2016-Aug-19 07:34N 51°26' E 003°41'1313.0
2016-Aug-19 06:34N 51°24' E 003°20'1313.2
2016-Aug-19 05:33N 51°25' E 002°59'1414.0
2016-Aug-19 04:33N 51°22' E 002°37'6 6.0
2016-Aug-19 03:33N 51°21' E 002°27'2 2.4
2016-Aug-19 02:33N 51°20' E 002°24'7 3.6
2016-Aug-19 00:33N 51°19' E 002°13'9 8.7
2016-Aug-18 23:33N 51°23' E 002°00'1313.0
2016-Aug-18 22:33N 51°34' E 001°48'1312.7
2016-Aug-18 21:33N 51°46' E 001°44'9 9.5
2016-Aug-18 20:33N 51°53' E 001°34'10 9.8
2016-Aug-18 19:33N 51°57' E 001°19'0 0.3
2016-Aug-18 18:32N 51°57' E 001°19'0 0.0
2016-Aug-18 17:32N 51°57' E 001°19'0 0.0
2016-Aug-18 16:32N 51°57' E 001°19'0 0.0
2016-Aug-18 15:32N 51°57' E 001°19'0 0.0
2016-Aug-18 14:32N 51°57' E 001°19'0 0.0
2016-Aug-18 13:32N 51°57' E 001°19'0 0.0
2016-Aug-18 12:32N 51°57' E 001°19'0 0.0
2016-Aug-18 11:32N 51°57' E 001°19'0 0.0
2016-Aug-18 10:32N 51°57' E 001°19'0 0.0
2016-Aug-18 09:32N 51°57' E 001°19'0 0.0
2016-Aug-18 08:32N 51°57' E 001°19'0 0.0
2016-Aug-18 07:32N 51°57' E 001°19'0 0.0
2016-Aug-18 06:32N 51°57' E 001°19'0 0.0
2016-Aug-18 05:32N 51°57' E 001°19'0 0.0
2016-Aug-18 04:32N 51°57' E 001°19'0 0.0
2016-Aug-18 03:32N 51°57' E 001°19'0 0.0
2016-Aug-18 02:32N 51°57' E 001°19'0 0.0
2016-Aug-18 01:32N 51°57' E 001°19'0 0.0
2016-Aug-18 00:32N 51°57' E 001°19'0 0.0
2016-Aug-17 23:32N 51°57' E 001°19'0 0.0
2016-Aug-17 22:32N 51°57' E 001°19'0 0.0
2016-Aug-17 21:32N 51°57' E 001°19'0 0.0
2016-Aug-17 20:33N 51°57' E 001°19'5 4.6
2016-Aug-17 19:33N 51°56' E 001°26'1110.8
2016-Aug-17 18:34N 51°52' E 001°42'2019.8
2016-Aug-17 17:34N 52°08' E 002°03'1818.4
2016-Aug-17 16:34N 52°18' E 002°28'1818.0
2016-Aug-17 15:34N 52°27' E 002°53'1717.4
2016-Aug-17 14:34N 52°32' E 003°21'1716.7
2016-Aug-17 13:33N 52°45' E 003°39'1817.5
2016-Aug-17 12:31N 52°59' E 003°59'2419.3
2016-Aug-17 11:16N 53°16' E 004°27'1419.8
2016-Aug-17 10:34N 53°28' E 004°38'2019.8
2016-Aug-17 09:33N 53°36' E 005°08'1919.1
2016-Aug-17 08:33N 53°43' E 005°38'1818.3
2016-Aug-17 07:34N 53°48' E 006°08'1818.0
2016-Aug-17 06:33N 53°52' E 006°38'1818.3
2016-Aug-17 05:33N 53°56' E 007°08'1918.8
2016-Aug-17 04:34N 53°59' E 007°39'1414.2
2016-Aug-17 03:33N 53°51' E 007°60'1817.7
2016-Aug-17 02:33N 53°40' E 008°23'8 7.8
2016-Aug-17 01:33N 53°35' E 008°32'0 0.0
2016-Aug-17 00:33N 53°35' E 008°32'0 0.0
2016-Aug-16 23:33N 53°35' E 008°32'0 0.0
2016-Aug-16 22:33N 53°35' E 008°32'0 0.0
2016-Aug-16 21:33N 53°35' E 008°32'0 0.0
2016-Aug-16 20:30N 53°35' E 008°32'0 0.0
2016-Aug-16 19:33N 53°35' E 008°32'0 0.0
2016-Aug-16 18:33N 53°35' E 008°32'0 0.0
2016-Aug-16 17:33N 53°35' E 008°32'0 0.0
2016-Aug-16 16:33N 53°35' E 008°32'0 0.0
2016-Aug-16 15:32N 53°35' E 008°32'0 0.0
2016-Aug-16 14:32N 53°35' E 008°32'0 0.0
2016-Aug-16 13:32N 53°35' E 008°32'0 0.0
2016-Aug-16 12:32N 53°35' E 008°32'0 0.0
2016-Aug-16 11:32N 53°35' E 008°32'0 0.0
2016-Aug-16 10:32N 53°35' E 008°32'0 0.0
2016-Aug-16 09:32N 53°35' E 008°32'0 0.0
2016-Aug-16 08:32N 53°35' E 008°32'0 0.0
2016-Aug-16 07:32N 53°35' E 008°32'4 1.4
2016-Aug-16 04:33N 53°38' E 008°28'1515.1
2016-Aug-16 03:33N 53°48' E 008°09'1414.0
2016-Aug-16 02:33N 53°53' E 007°47'9 8.6
2016-Aug-16 01:34N 53°55' E 007°32'1717.3
2016-Aug-16 00:34N 53°51' E 007°04'1717.1
2016-Aug-15 23:33N 53°47' E 006°36'1717.3
2016-Aug-15 22:33N 53°42' E 006°08'1717.4
2016-Aug-15 21:33N 53°36' E 005°40'1717.4
2016-Aug-15 20:33N 53°31' E 005°12'1818.4
2016-Aug-15 19:33N 53°23' E 004°44'2019.8
2016-Aug-15 18:33N 53°07' E 004°26'1616.5
2016-Aug-15 17:33N 52°52' E 004°14'1616.4
2016-Aug-15 16:33N 52°39' E 003°57'1716.7
2016-Aug-15 15:33N 52°27' E 003°37'2317.6
2016-Aug-15 14:16N 52°11' E 003°11'1318.0
2016-Aug-15 13:33N 52°01' E 002°58'2018.3
2016-Aug-15 12:26N 51°45' E 002°37'1618.5
2016-Aug-15 11:33N 51°33' E 002°20'1817.6
2016-Aug-15 10:33N 51°18' E 002°07'1818.2
2016-Aug-15 09:33N 51°06' E 001°45'1918.7
2016-Aug-15 08:33N 50°50' E 001°28'1717.4
2016-Aug-15 07:33N 50°36' E 001°12'1717.3
2016-Aug-15 06:33N 50°27' E 000°48'3618.1
2016-Aug-15 04:33N 50°16' W 000°06'1817.8
2016-Aug-15 03:33N 50°11' W 000°32'1717.3
2016-Aug-15 02:33N 50°07' W 000°58'1716.5
2016-Aug-15 01:33N 50°04' W 001°24'1615.8
2016-Aug-15 00:33N 50°00' W 001°47'1515.0
2016-Aug-14 23:33N 49°56' W 002°10'1515.1
2016-Aug-14 22:33N 49°53' W 002°33'1616.0
2016-Aug-14 21:33N 49°50' W 002°57'1616.4
2016-Aug-14 20:33N 49°47' W 003°22'1716.6
2016-Aug-14 19:33N 49°46' W 003°48'1716.7
2016-Aug-14 18:33N 49°45' W 004°13'1717.0
2016-Aug-14 17:33N 49°44' W 004°40'1717.3
2016-Aug-14 16:33N 49°42' W 005°06'1817.5
2016-Aug-14 15:30N 49°41' W 005°35'1717.9
2016-Aug-14 14:33N 49°40' W 006°01'1717.4
2016-Aug-14 13:33N 49°39' W 006°28'1616.0
2016-Aug-14 12:33N 49°39' W 006°52'1816.1
2016-Aug-14 11:28N 49°40' W 007°19'1516.3
2016-Aug-14 10:33N 49°40' W 007°42'5019.6
2016-Aug-14 08:00N 49°42' W 009°00'39718.0 090 / 91026.010.8 1.016.014.4
2016-Aug-13 10:00N 49°30' W 019°12'8721.7 050 / 81026.010.8 1.021.018.0
2016-Aug-13 06:00N 49°18' W 021°24'   090 / 61026.0 5.4 0.517.015.4
Track history (hours):
 
Tides and Currents Weather Stations Pressure Air Temp Water Temp Dewpoint Dewpoint Depression Visibility Wind Speed Wind Dir Waves Ship Positions

MSC Bremen

Last reported at 2016-Aug-23 06:00 UTC. Time now 2016-Aug-24 06:47 UTC.
Position N 49°54' W 012°00'.

Length 294 m; ; draft 13.7 m.

Type: Ship (hazmat cat A). MMSI: 636091270.

Wind from 010 at 12 knots

Waves 1.5 meters (5 feet), 10 second period

Barometer 1022.0 mb
Air temperature 17.0 ° C
Visibility: greater than 5.4 NM
Dewpoint 13.7 ° C

Date/timePositionNaut miles runAvg speedWind from/ knotsBaromVisibWave heightAir tempDewpointWater temp
2016-Aug-23 06:00N 49°54' W 012°00'18819.9 010 / 121022.0 5.4 1.517.013.7
2016-Aug-22 20:33N 49°43' W 007°09'2918.5
2016-Aug-22 19:00N 49°42' W 006°24'1121.9 140 / 141025.010.8 1.020.015.3
2016-Aug-22 18:30N 49°44' W 006°08'1819.3
2016-Aug-22 17:33N 49°46' W 005°40'2019.9
2016-Aug-22 16:33N 49°48' W 005°09'2020.0
2016-Aug-22 15:33N 49°50' W 004°38'2020.4
2016-Aug-22 14:33N 49°52' W 004°07'2120.6
2016-Aug-22 13:34N 49°55' W 003°35'2120.9
2016-Aug-22 12:33N 49°58' W 003°03'2019.4
2016-Aug-22 11:33N 50°02' W 002°33'1716.9
2016-Aug-22 10:33N 50°02' W 002°07'3716.9
2016-Aug-22 08:21N 49°48' W 001°13'1518.6
2016-Aug-22 07:33N 49°43' W 000°52'2120.8
2016-Aug-22 06:33N 49°36' W 000°22'1717.1
2016-Aug-22 05:33N 49°30' E 000°03'4 4.0
2016-Aug-22 04:32N 49°28' E 000°08'0 0.0
2016-Aug-22 03:32N 49°28' E 000°08'0 0.0
2016-Aug-22 02:32N 49°28' E 000°08'0 0.0
2016-Aug-22 01:32N 49°28' E 000°08'0 0.0
2016-Aug-22 00:32N 49°28' E 000°08'0 0.0
2016-Aug-21 23:32N 49°28' E 000°08'0 0.0
2016-Aug-21 22:32N 49°28' E 000°08'0 0.0
2016-Aug-21 21:32N 49°28' E 000°08'0 0.0
2016-Aug-21 20:32N 49°28' E 000°08'0 0.0
2016-Aug-21 19:32N 49°28' E 000°08'2 1.6
2016-Aug-21 18:34N 49°28' E 000°06'1111.2
2016-Aug-21 17:33N 49°33' W 000°10'6 6.2
2016-Aug-21 16:33N 49°38' W 000°13'1 0.6
2016-Aug-21 15:33N 49°39' W 000°12'2 2.2
2016-Aug-21 14:33N 49°41' W 000°12'1111.4
2016-Aug-21 13:33N 49°52' W 000°10'1211.6
2016-Aug-21 12:33N 50°04' W 000°09'1211.7
2016-Aug-21 11:33N 50°15' W 000°15'9 8.8
2016-Aug-21 10:33N 50°23' W 000°11'9 8.5
2016-Aug-21 09:30N 50°29' E 000°00'9 9.9
2016-Aug-21 08:33N 50°31' E 000°14'1111.4
2016-Aug-21 07:33N 50°35' E 000°31'3611.8
2016-Aug-21 04:29N 50°55' E 001°19'9 9.6
2016-Aug-21 03:33N 51°02' E 001°28'8 7.6
2016-Aug-21 02:33N 51°08' E 001°36'8 7.7
2016-Aug-21 01:34N 51°13' E 001°45'9 8.7
2016-Aug-21 00:33N 51°20' E 001°53'9 8.6
2016-Aug-20 23:33N 51°24' E 002°05'1010.1
2016-Aug-20 22:33N 51°21' E 002°20'1211.6
2016-Aug-20 21:33N 51°22' E 002°38'8 7.8
2016-Aug-20 20:33N 51°26' E 002°50'1616.1
2016-Aug-20 19:33N 51°25' E 003°16'1414.1
2016-Aug-20 18:34N 51°26' E 003°38'1312.7
2016-Aug-20 17:33N 51°26' E 003°58'1211.6
2016-Aug-20 16:33N 51°21' E 004°15'4 3.5
2016-Aug-20 15:31N 51°17' E 004°15'0 0.0
2016-Aug-20 14:31N 51°17' E 004°15'0 0.0
2016-Aug-20 13:31N 51°17' E 004°15'0 0.0
2016-Aug-20 12:31N 51°17' E 004°15'0 0.0
2016-Aug-20 11:31N 51°17' E 004°15'0 0.0
2016-Aug-20 10:31N 51°17' E 004°15'0 0.0
2016-Aug-20 09:31N 51°17' E 004°15'0 0.0
2016-Aug-20 08:31N 51°17' E 004°15'0 0.0
2016-Aug-20 07:31N 51°17' E 004°15'0 0.0
2016-Aug-20 06:31N 51°17' E 004°15'0 0.0
2016-Aug-20 05:31N 51°17' E 004°15'0 0.0
2016-Aug-20 04:31N 51°17' E 004°15'0 0.0
2016-Aug-20 03:31N 51°17' E 004°15'0 0.0
2016-Aug-20 02:31N 51°17' E 004°15'0 0.0
2016-Aug-20 01:31N 51°17' E 004°15'0 0.0
2016-Aug-20 00:31N 51°17' E 004°15'0 0.0
2016-Aug-19 23:31N 51°17' E 004°15'0 0.0
2016-Aug-19 22:31N 51°17' E 004°15'0 0.0
2016-Aug-19 21:31N 51°17' E 004°15'0 0.0
2016-Aug-19 20:31N 51°17' E 004°15'0 0.0
2016-Aug-19 19:31N 51°17' E 004°15'0 0.0
2016-Aug-19 18:31N 51°17' E 004°15'0 0.0
2016-Aug-19 17:31N 51°17' E 004°15'0 0.0
2016-Aug-19 16:28N 51°17' E 004°15'0 0.0
2016-Aug-19 15:31N 51°17' E 004°15'0 0.0
2016-Aug-19 14:31N 51°17' E 004°15'0 0.0
2016-Aug-19 13:31N 51°17' E 004°15'0 0.0
2016-Aug-19 12:31N 51°17' E 004°15'0 0.0
2016-Aug-19 11:31N 51°17' E 004°15'1 0.8
2016-Aug-19 10:33N 51°18' E 004°16'7 6.6
2016-Aug-19 09:33N 51°24' E 004°11'9 8.7
2016-Aug-19 08:33N 51°23' E 003°57'1110.7
2016-Aug-19 07:34N 51°26' E 003°41'1313.0
2016-Aug-19 06:34N 51°24' E 003°20'1313.2
2016-Aug-19 05:33N 51°25' E 002°59'1414.0
2016-Aug-19 04:33N 51°22' E 002°37'6 6.0
2016-Aug-19 03:33N 51°21' E 002°27'2 2.4
2016-Aug-19 02:33N 51°20' E 002°24'7 3.6
2016-Aug-19 00:33N 51°19' E 002°13'9 8.7
2016-Aug-18 23:33N 51°23' E 002°00'1313.0
2016-Aug-18 22:33N 51°34' E 001°48'1312.7
2016-Aug-18 21:33N 51°46' E 001°44'9 9.5
2016-Aug-18 20:33N 51°53' E 001°34'10 9.8
2016-Aug-18 19:33N 51°57' E 001°19'0 0.3
2016-Aug-18 18:32N 51°57' E 001°19'0 0.0
2016-Aug-18 17:32N 51°57' E 001°19'0 0.0
2016-Aug-18 16:32N 51°57' E 001°19'0 0.0
2016-Aug-18 15:32N 51°57' E 001°19'0 0.0
2016-Aug-18 14:32N 51°57' E 001°19'0 0.0
2016-Aug-18 13:32N 51°57' E 001°19'0 0.0
2016-Aug-18 12:32N 51°57' E 001°19'0 0.0
2016-Aug-18 11:32N 51°57' E 001°19'0 0.0
2016-Aug-18 10:32N 51°57' E 001°19'0 0.0
2016-Aug-18 09:32N 51°57' E 001°19'0 0.0
2016-Aug-18 08:32N 51°57' E 001°19'0 0.0
2016-Aug-18 07:32N 51°57' E 001°19'0 0.0
2016-Aug-18 06:32N 51°57' E 001°19'0 0.0
2016-Aug-18 05:32N 51°57' E 001°19'0 0.0
2016-Aug-18 04:32N 51°57' E 001°19'0 0.0
2016-Aug-18 03:32N 51°57' E 001°19'0 0.0
2016-Aug-18 02:32N 51°57' E 001°19'0 0.0
2016-Aug-18 01:32N 51°57' E 001°19'0 0.0
2016-Aug-18 00:32N 51°57' E 001°19'0 0.0
2016-Aug-17 23:32N 51°57' E 001°19'0 0.0
2016-Aug-17 22:32N 51°57' E 001°19'0 0.0
2016-Aug-17 21:32N 51°57' E 001°19'0 0.0
2016-Aug-17 20:33N 51°57' E 001°19'5 4.6
2016-Aug-17 19:33N 51°56' E 001°26'1110.8
2016-Aug-17 18:34N 51°52' E 001°42'2019.8
2016-Aug-17 17:34N 52°08' E 002°03'1818.4
2016-Aug-17 16:34N 52°18' E 002°28'1818.0
2016-Aug-17 15:34N 52°27' E 002°53'1717.4
2016-Aug-17 14:34N 52°32' E 003°21'1716.7
2016-Aug-17 13:33N 52°45' E 003°39'1817.5
2016-Aug-17 12:31N 52°59' E 003°59'2419.3
2016-Aug-17 11:16N 53°16' E 004°27'1419.8
2016-Aug-17 10:34N 53°28' E 004°38'2019.8
2016-Aug-17 09:33N 53°36' E 005°08'1919.1
2016-Aug-17 08:33N 53°43' E 005°38'1818.3
2016-Aug-17 07:34N 53°48' E 006°08'1818.0
2016-Aug-17 06:33N 53°52' E 006°38'1818.3
2016-Aug-17 05:33N 53°56' E 007°08'1918.8
2016-Aug-17 04:34N 53°59' E 007°39'1414.2
2016-Aug-17 03:33N 53°51' E 007°60'1817.7
2016-Aug-17 02:33N 53°40' E 008°23'8 7.8
2016-Aug-17 01:33N 53°35' E 008°32'0 0.0
2016-Aug-17 00:33N 53°35' E 008°32'0 0.0
2016-Aug-16 23:33N 53°35' E 008°32'0 0.0
2016-Aug-16 22:33N 53°35' E 008°32'0 0.0
2016-Aug-16 21:33N 53°35' E 008°32'0 0.0
2016-Aug-16 20:30N 53°35' E 008°32'0 0.0
2016-Aug-16 19:33N 53°35' E 008°32'0 0.0
2016-Aug-16 18:33N 53°35' E 008°32'0 0.0
2016-Aug-16 17:33N 53°35' E 008°32'0 0.0
2016-Aug-16 16:33N 53°35' E 008°32'0 0.0
2016-Aug-16 15:32N 53°35' E 008°32'0 0.0
2016-Aug-16 14:32N 53°35' E 008°32'0 0.0
2016-Aug-16 13:32N 53°35' E 008°32'0 0.0
2016-Aug-16 12:32N 53°35' E 008°32'0 0.0
2016-Aug-16 11:32N 53°35' E 008°32'0 0.0
2016-Aug-16 10:32N 53°35' E 008°32'0 0.0
2016-Aug-16 09:32N 53°35' E 008°32'0 0.0
2016-Aug-16 08:32N 53°35' E 008°32'0 0.0
2016-Aug-16 07:32N 53°35' E 008°32'4 1.4
2016-Aug-16 04:33N 53°38' E 008°28'1515.1
2016-Aug-16 03:33N 53°48' E 008°09'1414.0
2016-Aug-16 02:33N 53°53' E 007°47'9 8.6
2016-Aug-16 01:34N 53°55' E 007°32'1717.3
2016-Aug-16 00:34N 53°51' E 007°04'1717.1
2016-Aug-15 23:33N 53°47' E 006°36'1717.3
2016-Aug-15 22:33N 53°42' E 006°08'1717.4
2016-Aug-15 21:33N 53°36' E 005°40'1717.4
2016-Aug-15 20:33N 53°31' E 005°12'1818.4
2016-Aug-15 19:33N 53°23' E 004°44'2019.8
2016-Aug-15 18:33N 53°07' E 004°26'1616.5
2016-Aug-15 17:33N 52°52' E 004°14'1616.4
2016-Aug-15 16:33N 52°39' E 003°57'1716.7
2016-Aug-15 15:33N 52°27' E 003°37'2317.6
2016-Aug-15 14:16N 52°11' E 003°11'1318.0
2016-Aug-15 13:33N 52°01' E 002°58'2018.3
2016-Aug-15 12:26N 51°45' E 002°37'1618.5
2016-Aug-15 11:33N 51°33' E 002°20'1817.6
2016-Aug-15 10:33N 51°18' E 002°07'1818.2
2016-Aug-15 09:33N 51°06' E 001°45'1918.7
2016-Aug-15 08:33N 50°50' E 001°28'1717.4
2016-Aug-15 07:33N 50°36' E 001°12'1717.3
2016-Aug-15 06:33N 50°27' E 000°48'3618.1
2016-Aug-15 04:33N 50°16' W 000°06'1817.8
2016-Aug-15 03:33N 50°11' W 000°32'1717.3
2016-Aug-15 02:33N 50°07' W 000°58'1716.5
2016-Aug-15 01:33N 50°04' W 001°24'1615.8
2016-Aug-15 00:33N 50°00' W 001°47'1515.0
2016-Aug-14 23:33N 49°56' W 002°10'1515.1
2016-Aug-14 22:33N 49°53' W 002°33'1616.0
2016-Aug-14 21:33N 49°50' W 002°57'1616.4
2016-Aug-14 20:33N 49°47' W 003°22'1716.6
2016-Aug-14 19:33N 49°46' W 003°48'1716.7
2016-Aug-14 18:33N 49°45' W 004°13'1717.0
2016-Aug-14 17:33N 49°44' W 004°40'1717.3
2016-Aug-14 16:33N 49°42' W 005°06'1817.5
2016-Aug-14 15:30N 49°41' W 005°35'1717.9
2016-Aug-14 14:33N 49°40' W 006°01'1717.4
2016-Aug-14 13:33N 49°39' W 006°28'1616.0
2016-Aug-14 12:33N 49°39' W 006°52'1816.1
2016-Aug-14 11:28N 49°40' W 007°19'1516.3
2016-Aug-14 10:33N 49°40' W 007°42'5019.6
2016-Aug-14 08:00N 49°42' W 009°00'39718.0 090 / 91026.010.8 1.016.014.4
2016-Aug-13 10:00N 49°30' W 019°12'8721.7 050 / 81026.010.8 1.021.018.0
2016-Aug-13 06:00N 49°18' W 021°24'   090 / 61026.0 5.4 0.517.015.4

Dump ship's entire track history